createdAt,value
2023-01-28T00:00:38.683Z,98692.88
2023-01-28T00:03:05.187Z,98703.66
2023-01-28T00:05:31.901Z,98633.34
2023-01-28T00:07:58.617Z,98685.59
2023-01-28T00:10:25.262Z,98701.84
2023-01-28T00:12:52.063Z,98653.72
2023-01-28T00:15:18.715Z,98735.34
2023-01-28T00:17:45.377Z,98712.69
2023-01-28T00:20:12.518Z,98741.34
2023-01-28T00:22:39.104Z,98704.13
2023-01-28T00:25:05.827Z,98708.72
2023-01-28T00:27:32.776Z,98727.28
2023-01-28T00:29:59.732Z,98673.22
2023-01-28T00:32:26.435Z,98645.44
2023-01-28T00:34:53.039Z,98683.28
2023-01-28T00:37:19.706Z,98646.69
2023-01-28T00:39:46.301Z,98626.03
2023-01-28T00:42:12.933Z,98676.06
2023-01-28T00:44:39.581Z,98741.03
2023-01-28T00:47:06.223Z,98712.56
2023-01-28T00:49:32.834Z,98658.78
2023-01-28T00:51:59.654Z,98664.16
2023-01-28T00:54:26.260Z,98740.38
2023-01-28T00:56:53.628Z,98688.03
2023-01-28T00:59:20.602Z,98638.34
2023-01-28T01:01:47.533Z,98734.22
2023-01-28T01:04:14.223Z,98694.22
2023-01-28T01:06:41.549Z,98685.41
2023-01-28T01:09:11.519Z,98744.13
2023-01-28T01:11:39.044Z,98743.44
2023-01-28T01:14:08.640Z,98747.03
2023-01-28T01:16:41.824Z,98700.34
2023-01-28T01:19:09.691Z,98709.97
2023-01-28T01:21:36.403Z,98694.25
2023-01-28T01:24:03.249Z,98688.00
2023-01-28T01:26:30.016Z,98761.81
2023-01-28T01:28:57.764Z,98761.22
2023-01-28T01:31:24.531Z,98770.59
2023-01-28T01:33:53.232Z,98727.44
2023-01-28T01:36:21.741Z,98686.22
2023-01-28T01:38:48.823Z,98710.94
2023-01-28T01:41:35.064Z,98758.06
2023-01-28T01:44:04.626Z,98762.66
2023-01-28T01:46:51.032Z,98757.38
2023-01-28T01:49:26.674Z,98739.75
2023-01-28T01:52:15.395Z,98754.09
2023-01-28T01:54:45.454Z,98751.81
2023-01-28T01:57:16.040Z,98755.84
2023-01-28T01:59:43.876Z,98741.31
2023-01-28T02:02:11.799Z,98732.59
2023-01-28T02:04:44.720Z,98769.78
2023-01-28T02:07:17.380Z,98760.81
2023-01-28T02:09:44.178Z,98675.81
2023-01-28T02:12:17.068Z,98642.97
2023-01-28T02:15:21.528Z,98758.50
2023-01-28T02:17:50.376Z,98654.44
2023-01-28T02:20:25.822Z,98747.78
2023-01-28T02:23:05.078Z,98716.66
2023-01-28T02:25:57.416Z,98736.78
2023-01-28T02:28:37.047Z,98769.78
2023-01-28T02:31:24.166Z,98758.16
2023-01-28T02:33:53.858Z,98757.53
2023-01-28T02:36:29.573Z,98761.66
2023-01-28T02:39:02.193Z,98710.81
2023-01-28T02:41:35.084Z,98737.19
2023-01-28T02:44:03.554Z,98766.59
2023-01-28T02:46:49.029Z,98767.00
2023-01-28T02:49:20.733Z,98749.38
2023-01-28T02:52:42.041Z,98773.13
2023-01-28T02:55:21.828Z,98749.03
2023-01-28T02:58:07.184Z,98777.19
2023-01-28T03:00:47.086Z,98703.69
2023-01-28T03:03:40.650Z,98774.66
2023-01-28T03:06:12.133Z,98763.38
2023-01-28T03:09:04.871Z,98689.47
2023-01-28T03:11:52.445Z,98778.94
2023-01-28T03:14:39.510Z,98746.47
2023-01-28T03:17:31.136Z,98751.03
2023-01-28T03:20:16.334Z,98767.06
2023-01-28T03:23:08.050Z,98769.84
2023-01-28T03:25:58.560Z,98738.53
2023-01-28T03:28:45.593Z,98745.69
2023-01-28T03:31:38.606Z,98764.16
2023-01-28T03:34:24.733Z,98730.97
2023-01-28T03:36:53.492Z,98795.16
2023-01-28T03:39:32.378Z,98776.09
2023-01-28T03:42:12.254Z,98766.50
2023-01-28T03:45:01.694Z,98739.06
2023-01-28T03:47:30.427Z,98813.84
2023-01-28T03:49:59.893Z,98777.75
2023-01-28T03:52:31.918Z,98817.59
2023-01-28T03:55:21.369Z,98809.19
2023-01-28T03:57:48.004Z,98809.69
2023-01-28T04:00:17.115Z,98800.72
2023-01-28T04:02:44.149Z,98761.50
2023-01-28T04:05:16.253Z,98796.78
2023-01-28T04:07:47.370Z,98806.97
2023-01-28T04:10:28.032Z,98813.75
2023-01-28T04:13:06.734Z,98801.19
2023-01-28T04:15:33.959Z,98739.97
2023-01-28T04:18:00.889Z,98828.44
2023-01-28T04:20:29.901Z,98835.28
2023-01-28T04:22:59.265Z,98825.09
2023-01-28T04:25:25.927Z,98794.72
2023-01-28T04:27:52.714Z,98805.75
2023-01-28T04:30:25.540Z,98812.38
2023-01-28T04:33:22.303Z,98828.94
2023-01-28T04:36:02.016Z,98799.41
2023-01-28T04:38:52.311Z,98832.44
2023-01-28T04:41:27.346Z,98790.63
2023-01-28T04:43:57.642Z,98834.00
2023-01-28T04:46:38.591Z,98794.47
2023-01-28T04:49:23.693Z,98811.63
2023-01-28T04:51:50.253Z,98844.53
2023-01-28T04:54:42.790Z,98827.84
2023-01-28T04:57:09.558Z,98853.44
2023-01-28T04:59:36.526Z,98844.16
2023-01-28T05:02:03.282Z,98845.13
2023-01-28T05:04:30.269Z,98818.84
2023-01-28T05:06:56.843Z,98820.75
2023-01-28T05:09:28.614Z,98832.63
2023-01-28T05:11:56.080Z,98860.25
2023-01-28T05:14:23.322Z,98876.09
2023-01-28T05:16:57.521Z,98872.97
2023-01-28T05:19:24.471Z,98821.06
2023-01-28T05:21:51.107Z,98887.22
2023-01-28T05:24:27.637Z,98828.00
2023-01-28T05:26:54.240Z,98884.97
2023-01-28T05:29:21.003Z,98885.91
2023-01-28T05:31:48.432Z,98886.41
2023-01-28T05:34:16.016Z,98841.44
2023-01-28T05:36:44.417Z,98889.72
2023-01-28T05:39:36.268Z,98813.53
2023-01-28T05:42:03.944Z,98866.63
2023-01-28T05:44:32.972Z,98890.81
2023-01-28T05:47:15.552Z,98848.88
2023-01-28T05:49:48.015Z,98857.53
2023-01-28T05:52:26.640Z,98847.31
2023-01-28T05:54:53.311Z,98889.66
2023-01-28T05:57:19.971Z,98858.78
2023-01-28T05:59:46.718Z,98890.34
2023-01-28T06:02:13.394Z,98860.44
2023-01-28T06:04:41.538Z,98920.97
2023-01-28T06:07:09.148Z,98855.34
2023-01-28T06:09:37.974Z,98872.19
2023-01-28T06:12:05.030Z,98872.31
2023-01-28T06:14:38.845Z,98909.69
2023-01-28T06:17:10.614Z,98883.94
2023-01-28T06:19:59.771Z,98927.78
2023-01-28T06:22:27.315Z,98873.47
2023-01-28T06:24:53.896Z,98899.53
2023-01-28T06:27:20.828Z,98932.91
2023-01-28T06:29:47.397Z,98930.41
2023-01-28T06:32:14.158Z,98964.06
2023-01-28T06:34:41.000Z,98895.78
2023-01-28T06:37:07.680Z,98959.34
2023-01-28T06:39:34.178Z,98960.94
2023-01-28T06:42:00.825Z,98940.13
2023-01-28T06:44:27.403Z,98953.09
2023-01-28T06:46:54.016Z,98979.03
2023-01-28T06:49:21.842Z,98974.59
2023-01-28T06:51:49.139Z,98958.94
2023-01-28T06:54:15.774Z,98971.34
2023-01-28T06:56:42.947Z,98988.78
2023-01-28T06:59:09.570Z,98988.56
2023-01-28T07:01:36.165Z,98965.44
2023-01-28T07:04:02.689Z,98963.72
2023-01-28T07:06:29.319Z,98986.91
2023-01-28T07:08:55.941Z,98991.91
2023-01-28T07:11:22.598Z,98979.28
2023-01-28T07:13:49.216Z,98992.63
2023-01-28T07:16:15.770Z,98965.06
2023-01-28T07:18:42.262Z,98988.06
2023-01-28T07:21:08.760Z,98995.66
2023-01-28T07:23:35.452Z,98995.31
2023-01-28T07:26:05.013Z,98987.84
2023-01-28T07:28:31.897Z,99000.94
2023-01-28T07:30:58.478Z,98996.41
2023-01-28T07:33:25.050Z,98966.41
2023-01-28T07:35:51.554Z,98990.41
2023-01-28T07:38:18.193Z,98982.41
2023-01-28T07:40:45.586Z,98987.38
2023-01-28T07:43:12.383Z,98986.47
2023-01-28T07:45:40.973Z,98961.47
2023-01-28T07:48:11.199Z,98970.22
2023-01-28T07:50:38.297Z,98992.34
2023-01-28T07:53:07.407Z,99001.34
2023-01-28T07:55:35.957Z,99000.22
2023-01-28T07:58:04.526Z,98999.78
2023-01-28T08:00:32.861Z,99013.09
2023-01-28T08:03:02.052Z,99010.97
2023-01-28T08:05:49.768Z,99014.56
2023-01-28T08:08:17.278Z,99020.66
2023-01-28T08:10:44.302Z,99028.28
2023-01-28T08:13:12.009Z,99005.13
2023-01-28T08:15:38.914Z,99017.91
2023-01-28T08:18:07.411Z,99014.84
2023-01-28T08:20:34.744Z,99004.66
2023-01-28T08:23:28.030Z,99027.53
2023-01-28T08:25:55.233Z,99034.78
2023-01-28T08:28:21.952Z,99033.19
2023-01-28T08:30:48.683Z,99007.56
2023-01-28T08:33:16.882Z,99016.09
2023-01-28T08:35:44.210Z,99041.69
2023-01-28T08:38:13.150Z,99040.41
2023-01-28T08:40:40.563Z,99033.28
2023-01-28T08:43:07.259Z,99031.75
2023-01-28T08:45:33.825Z,99048.84
2023-01-28T08:48:10.897Z,99027.97
2023-01-28T08:50:38.822Z,99053.00
2023-01-28T08:53:06.241Z,99055.13
2023-01-28T08:55:34.324Z,99046.03
2023-01-28T08:58:06.115Z,99047.22
2023-01-28T09:00:33.404Z,99056.00
2023-01-28T09:03:00.105Z,99053.84
2023-01-28T09:05:26.784Z,99056.63
2023-01-28T09:07:53.354Z,99047.06
2023-01-28T09:10:22.857Z,99065.34
2023-01-28T09:12:49.396Z,99055.50
2023-01-28T09:15:16.009Z,99037.56
2023-01-28T09:17:42.485Z,99056.75
2023-01-28T09:20:09.875Z,99064.53
2023-01-28T09:22:36.546Z,99059.50
2023-01-28T09:25:03.225Z,99067.22
2023-01-28T09:27:29.819Z,99054.66
2023-01-28T09:29:56.374Z,99070.34
2023-01-28T09:32:25.002Z,99052.59
2023-01-28T09:34:51.563Z,99075.16
2023-01-28T09:37:18.338Z,99065.00
2023-01-28T09:39:44.854Z,99062.09
2023-01-28T09:42:31.789Z,99066.91
2023-01-28T09:45:16.119Z,99076.16
2023-01-28T09:47:52.851Z,99084.00
2023-01-28T09:50:30.880Z,99086.13
2023-01-28T09:53:04.729Z,99083.59
2023-01-28T09:55:44.571Z,99060.16
2023-01-28T09:58:12.520Z,99088.59
2023-01-28T10:00:47.937Z,99086.66
2023-01-28T10:03:22.509Z,99089.91
2023-01-28T10:06:21.467Z,99077.09
2023-01-28T10:09:25.371Z,99064.00
2023-01-28T10:12:02.317Z,99089.81
2023-01-28T10:14:40.915Z,99086.25
2023-01-28T10:17:11.203Z,99079.91
2023-01-28T10:19:43.811Z,99069.06
2023-01-28T10:22:24.688Z,99091.06
2023-01-28T10:25:02.043Z,99079.00
2023-01-28T10:27:31.782Z,99077.56
2023-01-28T10:30:18.154Z,99056.19
2023-01-28T10:32:51.815Z,99083.03
2023-01-28T10:35:19.013Z,99072.97
2023-01-28T10:37:45.705Z,99064.75
2023-01-28T10:40:19.369Z,99074.03
2023-01-28T10:42:46.150Z,99077.63
2023-01-28T10:45:20.766Z,99067.91
2023-01-28T10:47:56.274Z,99069.59
2023-01-28T10:50:25.493Z,99047.13
2023-01-28T10:53:04.014Z,99064.69
2023-01-28T10:55:44.563Z,99062.03
2023-01-28T10:58:22.454Z,99025.69
2023-01-28T11:00:57.751Z,99019.19
2023-01-28T11:03:29.095Z,99052.13
2023-01-28T11:05:57.050Z,99049.25
2023-01-28T11:08:25.746Z,99044.94
2023-01-28T11:10:53.653Z,99045.56
2023-01-28T11:13:28.560Z,99041.38
2023-01-28T11:16:17.292Z,99031.31
2023-01-28T11:18:55.648Z,99003.38
2023-01-28T11:21:26.089Z,99039.53
2023-01-28T11:24:16.637Z,99035.09
2023-01-28T11:26:45.927Z,99031.91
2023-01-28T11:29:32.629Z,99004.66
2023-01-28T11:32:00.731Z,99026.38
2023-01-28T11:34:29.743Z,99020.97
2023-01-28T11:37:14.267Z,99025.53
2023-01-28T11:39:40.891Z,99013.66
2023-01-28T11:42:20.594Z,99016.31
2023-01-28T11:44:48.791Z,99007.06
2023-01-28T11:47:44.374Z,99007.66
2023-01-28T11:50:39.111Z,99005.03
2023-01-28T11:53:44.422Z,98998.81
2023-01-28T11:56:33.175Z,99003.34
2023-01-28T11:58:59.745Z,99005.28
2023-01-28T12:01:34.812Z,98995.69
2023-01-28T12:04:20.759Z,98983.53
2023-01-28T12:06:53.194Z,98997.59
2023-01-28T12:09:39.838Z,98984.03
2023-01-28T12:12:44.634Z,98946.56
2023-01-28T12:15:30.912Z,98958.56
2023-01-28T12:18:03.440Z,98974.66
2023-01-28T12:20:50.301Z,98970.47
2023-01-28T12:23:28.709Z,98971.22
2023-01-28T12:26:20.748Z,98966.25
2023-01-28T12:29:24.912Z,98934.28
2023-01-28T12:32:28.764Z,98957.41
2023-01-28T12:35:36.626Z,98951.59
2023-01-28T12:38:37.399Z,98937.09
2023-01-28T12:41:28.186Z,98942.13
2023-01-28T12:44:03.784Z,98948.00
2023-01-28T12:46:48.545Z,98932.47
2023-01-28T12:49:24.339Z,98941.22
2023-01-28T12:52:06.073Z,98934.72
2023-01-28T12:54:39.335Z,98924.59
2023-01-28T12:57:08.384Z,98927.88
2023-01-28T12:59:45.476Z,98923.44
2023-01-28T13:02:12.098Z,98929.88
2023-01-28T13:04:47.684Z,98930.63
2023-01-28T13:07:37.216Z,98930.47
2023-01-28T13:10:29.075Z,98899.56
2023-01-28T13:12:57.403Z,98912.00
2023-01-28T13:15:25.042Z,98902.94
2023-01-28T13:18:02.931Z,98921.00
2023-01-28T13:20:48.384Z,98922.78
2023-01-28T13:23:44.753Z,98923.56
2023-01-28T13:26:11.288Z,98927.25
2023-01-28T13:28:37.888Z,98909.16
2023-01-28T13:31:14.465Z,98920.72
2023-01-28T13:33:42.296Z,98919.47
2023-01-28T13:36:18.181Z,98921.38
2023-01-28T13:38:46.071Z,98917.69
2023-01-28T13:41:12.732Z,98923.63
2023-01-28T13:43:42.055Z,98924.31
2023-01-28T13:46:10.591Z,98912.25
2023-01-28T13:48:52.016Z,98927.00
2023-01-28T13:51:22.834Z,98932.63
2023-01-28T13:53:59.496Z,98930.25
2023-01-28T13:56:30.557Z,98943.16
2023-01-28T13:59:12.202Z,98947.53
2023-01-28T14:02:00.246Z,98946.72
2023-01-28T14:04:54.821Z,98946.72
2023-01-28T14:07:54.794Z,98926.91
2023-01-28T14:11:09.257Z,98949.81
2023-01-28T14:13:48.135Z,98940.84
2023-01-28T14:16:23.844Z,98954.50
2023-01-28T14:18:52.436Z,98943.66
2023-01-28T14:21:21.015Z,98930.50
2023-01-28T14:23:53.982Z,98917.88
2023-01-28T14:26:39.255Z,98953.25
2023-01-28T14:29:21.583Z,98943.50
2023-01-28T14:31:48.583Z,98952.19
2023-01-28T14:34:35.730Z,98951.19
2023-01-28T14:37:08.004Z,98940.78
2023-01-28T14:39:48.655Z,98948.19
2023-01-28T14:42:27.483Z,98938.03
2023-01-28T14:45:09.448Z,98941.78
2023-01-28T14:47:45.551Z,98944.31
2023-01-28T14:50:35.250Z,98909.09
2023-01-28T14:53:39.598Z,98941.22
2023-01-28T14:56:43.090Z,98946.34
2023-01-28T14:59:12.541Z,98936.97
2023-01-28T15:01:45.098Z,98895.13
2023-01-28T15:04:34.752Z,98954.06
2023-01-28T15:07:16.399Z,98930.78
2023-01-28T15:09:43.132Z,98957.13
2023-01-28T15:12:10.186Z,98957.28
2023-01-28T15:14:36.830Z,98953.09
2023-01-28T15:17:03.607Z,98931.44
2023-01-28T15:19:33.480Z,98928.00
2023-01-28T15:22:03.279Z,98956.28
2023-01-28T15:24:32.230Z,98959.59
2023-01-28T15:26:58.941Z,98954.44
2023-01-28T15:29:36.903Z,98936.00
2023-01-28T15:32:05.158Z,98960.97
2023-01-28T15:34:32.148Z,98968.47
2023-01-28T15:37:02.069Z,98933.09
2023-01-28T15:39:30.031Z,98975.69
2023-01-28T15:42:03.512Z,98976.34
2023-01-28T15:44:32.708Z,98979.81
2023-01-28T15:47:01.175Z,98952.78
2023-01-28T15:49:32.684Z,98987.31
2023-01-28T15:52:00.105Z,98963.31
2023-01-28T15:54:27.011Z,98980.28
2023-01-28T15:56:53.605Z,98916.94
2023-01-28T15:59:27.121Z,98990.16
2023-01-28T16:02:12.524Z,99001.34
2023-01-28T16:04:39.138Z,98999.84
2023-01-28T16:07:05.816Z,98950.28
2023-01-28T16:09:34.269Z,99015.22
2023-01-28T16:12:02.729Z,98940.22
2023-01-28T16:14:52.413Z,99007.91
2023-01-28T16:17:23.437Z,99027.94
2023-01-28T16:20:01.233Z,99012.88
2023-01-28T16:22:36.978Z,99001.38
2023-01-28T16:25:24.064Z,99037.00
2023-01-28T16:27:50.653Z,99040.41
2023-01-28T16:30:17.782Z,99036.16
2023-01-28T16:32:45.170Z,99045.22
2023-01-28T16:35:20.205Z,99043.63
2023-01-28T16:37:48.227Z,99045.63
2023-01-28T16:40:16.049Z,99044.69
2023-01-28T16:42:44.680Z,99048.84
2023-01-28T16:45:20.139Z,99032.91
2023-01-28T16:47:47.058Z,99046.41
2023-01-28T16:50:15.348Z,99015.47
2023-01-28T16:52:44.423Z,99075.94
2023-01-28T16:55:14.740Z,99068.53
2023-01-28T16:57:43.354Z,99036.16
2023-01-28T17:00:19.323Z,99053.91
2023-01-28T17:02:46.572Z,99064.03
2023-01-28T17:05:15.153Z,98996.69
2023-01-28T17:07:42.471Z,99080.38
2023-01-28T17:10:10.376Z,99072.38
2023-01-28T17:12:36.912Z,99068.34
2023-01-28T17:15:03.947Z,99060.22
2023-01-28T17:17:30.603Z,99025.81
2023-01-28T17:19:57.190Z,99043.72
2023-01-28T17:22:23.801Z,99056.22
2023-01-28T17:24:50.364Z,99053.28
2023-01-28T17:27:16.995Z,99027.66
2023-01-28T17:29:43.503Z,99005.44
2023-01-28T17:32:10.220Z,99041.41
2023-01-28T17:34:36.760Z,99060.31
2023-01-28T17:37:03.437Z,99105.78
2023-01-28T17:39:30.021Z,99097.56
2023-01-28T17:41:56.933Z,99109.56
2023-01-28T17:44:23.586Z,99025.75
2023-01-28T17:46:50.200Z,99111.84
2023-01-28T17:49:16.711Z,99041.00
2023-01-28T17:51:43.306Z,99110.00
2023-01-28T17:54:11.808Z,99111.53
2023-01-28T17:56:38.899Z,99048.38
2023-01-28T17:59:06.586Z,99108.75
2023-01-28T18:01:34.622Z,99103.25
2023-01-28T18:04:01.572Z,99098.94
2023-01-28T18:06:32.787Z,99122.72
2023-01-28T18:09:00.061Z,99112.50
2023-01-28T18:11:27.070Z,99072.28
2023-01-28T18:13:53.565Z,99054.34
2023-01-28T18:16:21.243Z,99093.25
2023-01-28T18:18:49.602Z,99118.72
2023-01-28T18:21:51.683Z,99107.19
2023-01-28T18:24:20.644Z,99114.03
2023-01-28T18:26:47.624Z,99111.38
2023-01-28T18:29:20.392Z,99078.81
2023-01-28T18:31:48.632Z,99159.78
2023-01-28T18:34:15.214Z,99161.09
2023-01-28T18:36:42.083Z,99152.84
2023-01-28T18:39:13.595Z,99161.59
2023-01-28T18:41:40.707Z,99160.56
2023-01-28T18:44:13.067Z,99166.63
2023-01-28T18:46:40.169Z,99133.75
2023-01-28T18:49:07.192Z,99113.63
2023-01-28T18:51:33.833Z,99181.94
2023-01-28T18:54:02.961Z,99147.22
2023-01-28T18:56:30.791Z,99167.47
2023-01-28T18:58:59.301Z,99140.22
2023-01-28T19:01:26.767Z,99178.63
2023-01-28T19:03:56.045Z,99199.97
2023-01-28T19:06:23.869Z,99101.72
2023-01-28T19:08:56.042Z,99117.00
2023-01-28T19:11:24.959Z,99164.41
2023-01-28T19:13:52.295Z,99210.13
2023-01-28T19:16:20.138Z,99218.06
2023-01-28T19:18:59.332Z,99194.47
2023-01-28T19:21:28.102Z,99116.56
2023-01-28T19:23:57.102Z,99156.34
2023-01-28T19:26:25.391Z,99221.75
2023-01-28T19:28:52.388Z,99150.06
2023-01-28T19:31:21.068Z,99230.69
2023-01-28T19:33:49.395Z,99166.59
2023-01-28T19:36:16.368Z,99238.56
2023-01-28T19:38:43.285Z,99177.69
2023-01-28T19:41:12.307Z,99199.63
2023-01-28T19:43:39.047Z,99144.50
2023-01-28T19:46:06.266Z,99204.53
2023-01-28T19:48:34.014Z,99201.28
2023-01-28T19:51:08.169Z,99228.03
2023-01-28T19:53:36.575Z,99181.03
2023-01-28T19:56:06.620Z,99272.09
2023-01-28T19:58:35.132Z,99146.81
2023-01-28T20:01:11.716Z,99231.97
2023-01-28T20:03:38.474Z,99273.03
2023-01-28T20:06:07.898Z,99275.91
2023-01-28T20:08:34.580Z,99216.75
2023-01-28T20:11:12.451Z,99236.09
2023-01-28T20:13:41.046Z,99256.47
2023-01-28T20:16:11.530Z,99230.06
2023-01-28T20:18:38.087Z,99239.06
2023-01-28T20:21:10.952Z,99282.47
2023-01-28T20:23:37.506Z,99239.00
2023-01-28T20:26:04.274Z,99250.19
2023-01-28T20:28:30.980Z,99272.75
2023-01-28T20:30:57.855Z,99298.88
2023-01-28T20:33:24.856Z,99271.91
2023-01-28T20:35:51.387Z,99221.38
2023-01-28T20:38:21.098Z,99235.84
2023-01-28T20:40:47.757Z,99292.72
2023-01-28T20:43:14.300Z,99268.81
2023-01-28T20:45:40.961Z,99226.19
2023-01-28T20:48:07.447Z,99298.41
2023-01-28T20:50:34.735Z,99277.25
2023-01-28T20:53:01.384Z,99260.88
2023-01-28T20:55:28.671Z,99302.81
2023-01-28T20:57:55.313Z,99315.44
2023-01-28T21:00:22.336Z,99303.75
2023-01-28T21:02:49.026Z,99296.13
2023-01-28T21:05:15.855Z,99285.38
2023-01-28T21:07:42.495Z,99272.03
2023-01-28T21:10:09.805Z,99271.75
2023-01-28T21:12:36.374Z,99289.72
2023-01-28T21:15:03.023Z,99282.81
2023-01-28T21:17:31.747Z,99328.72
2023-01-28T21:19:58.711Z,99333.16
2023-01-28T21:22:25.245Z,99292.09
2023-01-28T21:24:52.009Z,99304.09
2023-01-28T21:27:18.673Z,99268.53
2023-01-28T21:29:45.298Z,99260.13
2023-01-28T21:32:11.931Z,99269.13
2023-01-28T21:34:38.633Z,99291.00
2023-01-28T21:37:05.125Z,99351.59
2023-01-28T21:39:31.778Z,99283.34
2023-01-28T21:41:58.301Z,99360.63
2023-01-28T21:44:24.995Z,99299.53
2023-01-28T21:46:51.632Z,99280.72
2023-01-28T21:49:18.359Z,99312.41
2023-01-28T21:51:47.564Z,99323.81
2023-01-28T21:54:19.165Z,99362.78
2023-01-28T21:56:50.155Z,99361.22
2023-01-28T21:59:30.681Z,99366.69
2023-01-28T22:02:04.048Z,99379.06
2023-01-28T22:04:36.430Z,99374.00
2023-01-28T22:07:05.564Z,99321.50
2023-01-28T22:09:33.737Z,99284.97
2023-01-28T22:12:00.889Z,99392.91
2023-01-28T22:14:27.588Z,99330.50
2023-01-28T22:16:54.655Z,99366.28
2023-01-28T22:19:24.385Z,99340.28
2023-01-28T22:21:50.961Z,99358.03
2023-01-28T22:24:20.158Z,99304.66
2023-01-28T22:26:47.645Z,99385.16
2023-01-28T22:29:16.369Z,99394.25
2023-01-28T22:31:45.723Z,99337.44
2023-01-28T22:34:12.638Z,99382.38
2023-01-28T22:36:39.388Z,99403.91
2023-01-28T22:39:08.595Z,99391.97
2023-01-28T22:41:35.138Z,99420.28
2023-01-28T22:44:03.588Z,99354.72
2023-01-28T22:46:33.277Z,99419.94
2023-01-28T22:49:00.787Z,99388.41
2023-01-28T22:51:30.674Z,99418.47
2023-01-28T22:53:57.700Z,99422.56
2023-01-28T22:56:27.297Z,99375.31
2023-01-28T22:58:55.737Z,99373.56
2023-01-28T23:01:22.412Z,99416.13
2023-01-28T23:03:50.397Z,99428.00
2023-01-28T23:06:19.737Z,99438.75
2023-01-28T23:08:47.542Z,99409.88
2023-01-28T23:11:15.295Z,99440.25
2023-01-28T23:14:03.864Z,99373.47
2023-01-28T23:16:49.387Z,99428.78
2023-01-28T23:19:35.612Z,99431.06
2023-01-28T23:22:20.628Z,99436.34
2023-01-28T23:24:47.170Z,99401.38
2023-01-28T23:27:13.715Z,99430.13
2023-01-28T23:29:40.304Z,99447.38
2023-01-28T23:32:11.151Z,99454.78
2023-01-28T23:34:40.648Z,99437.47
2023-01-28T23:37:09.402Z,99421.84
2023-01-28T23:39:36.275Z,99404.06
2023-01-28T23:42:13.925Z,99422.06
2023-01-28T23:44:41.236Z,99430.22
2023-01-28T23:47:08.279Z,99467.97
2023-01-28T23:49:35.041Z,99368.22
2023-01-28T23:52:06.343Z,99463.44
2023-01-28T23:54:33.350Z,99447.44
2023-01-28T23:57:00.939Z,99369.72
2023-01-28T23:59:27.575Z,99458.38
